createdAt,value
2018-12-16T00:00:03.049Z,1.30
2018-12-16T00:00:40.083Z,1.20
2018-12-16T00:01:21.549Z,1.90
2018-12-16T00:01:58.664Z,1.30
2018-12-16T00:02:35.556Z,1.33
2018-12-16T00:03:12.439Z,1.10
2018-12-16T00:03:49.477Z,1.13
2018-12-16T00:04:26.356Z,1.50
2018-12-16T00:05:03.267Z,1.20
2018-12-16T00:05:40.380Z,1.10
2018-12-16T00:06:17.129Z,1.47
2018-12-16T00:06:54.062Z,1.40
2018-12-16T00:07:30.938Z,1.50
2018-12-16T00:08:07.822Z,1.67
2018-12-16T00:08:44.610Z,1.27
2018-12-16T00:09:21.423Z,1.00
2018-12-16T00:09:58.265Z,1.70
2018-12-16T00:10:35.204Z,1.20
2018-12-16T00:11:12.002Z,1.00
2018-12-16T00:11:48.844Z,1.07
2018-12-16T00:12:25.664Z,2.03
2018-12-16T00:13:02.610Z,1.33
2018-12-16T00:13:39.482Z,1.27
2018-12-16T00:14:16.360Z,1.17
2018-12-16T00:14:53.211Z,1.30
2018-12-16T00:15:30.028Z,1.17
2018-12-16T00:16:06.986Z,1.10
2018-12-16T00:16:43.860Z,1.50
2018-12-16T00:17:20.732Z,1.70
2018-12-16T00:17:57.533Z,1.27
2018-12-16T00:18:34.520Z,1.60
2018-12-16T00:19:11.368Z,1.47
2018-12-16T00:19:48.221Z,1.40
2018-12-16T00:20:25.137Z,1.40
2018-12-16T00:21:02.064Z,1.23
2018-12-16T00:21:38.899Z,1.50
2018-12-16T00:22:15.692Z,1.67
2018-12-16T00:22:52.579Z,1.20
2018-12-16T00:23:29.496Z,1.30
2018-12-16T00:24:06.321Z,1.30
2018-12-16T00:24:43.220Z,1.60
2018-12-16T00:25:20.177Z,1.43
2018-12-16T00:25:57.085Z,1.20
2018-12-16T00:27:38.084Z,1.40
2018-12-16T00:28:14.874Z,1.13
2018-12-16T00:28:51.704Z,1.20
2018-12-16T00:29:28.603Z,1.47
2018-12-16T00:30:05.569Z,1.70
2018-12-16T00:30:42.410Z,1.40
2018-12-16T00:31:19.277Z,1.50
2018-12-16T00:31:57.324Z,1.17
2018-12-16T00:32:34.190Z,1.20
2018-12-16T00:33:13.892Z,1.40
2018-12-16T00:33:50.772Z,1.80
2018-12-16T00:35:02.192Z,1.20
2018-12-16T00:35:39.027Z,1.20
2018-12-16T00:36:15.928Z,1.17
2018-12-16T00:36:52.873Z,1.20
2018-12-16T00:37:29.960Z,1.43
2018-12-16T00:38:06.860Z,1.67
2018-12-16T00:38:43.635Z,1.60
2018-12-16T00:39:20.447Z,1.20
2018-12-16T00:39:57.442Z,1.40
2018-12-16T00:40:34.319Z,1.33
2018-12-16T00:41:11.148Z,1.10
2018-12-16T00:41:47.934Z,1.00
2018-12-16T00:42:24.753Z,1.30
2018-12-16T00:43:01.739Z,1.40
2018-12-16T00:43:41.618Z,1.33
2018-12-16T00:44:18.432Z,1.83
2018-12-16T00:44:56.550Z,1.60
2018-12-16T00:45:33.357Z,1.57
2018-12-16T00:46:10.309Z,1.27
2018-12-16T00:46:47.131Z,0.90
2018-12-16T00:47:24.082Z,1.17
2018-12-16T00:48:00.891Z,1.07
2018-12-16T00:48:37.884Z,1.03
2018-12-16T00:49:14.769Z,1.10
2018-12-16T00:49:51.561Z,1.27
2018-12-16T00:50:28.462Z,1.30
2018-12-16T00:51:05.261Z,1.70
2018-12-16T00:51:42.105Z,0.90
2018-12-16T00:52:18.991Z,1.17
2018-12-16T00:52:56.092Z,1.40
2018-12-16T00:53:33.006Z,1.10
2018-12-16T00:54:09.977Z,1.27
2018-12-16T00:54:46.752Z,1.00
2018-12-16T00:55:23.699Z,1.30
2018-12-16T00:56:00.569Z,1.10
2018-12-16T00:56:37.395Z,1.00
2018-12-16T00:57:14.345Z,1.23
2018-12-16T00:57:51.176Z,1.10
2018-12-16T00:58:27.933Z,1.20
2018-12-16T00:59:04.785Z,1.20
2018-12-16T00:59:41.706Z,0.80
2018-12-16T01:00:18.725Z,0.90
2018-12-16T01:00:55.552Z,1.50
2018-12-16T01:01:32.392Z,0.97
2018-12-16T01:02:14.926Z,1.10
2018-12-16T01:02:51.862Z,1.17
2018-12-16T01:03:28.669Z,1.50
2018-12-16T01:04:05.530Z,1.20
2018-12-16T01:04:42.376Z,1.20
2018-12-16T01:05:19.273Z,1.20
2018-12-16T01:05:56.206Z,1.20
2018-12-16T01:06:33.240Z,1.40
2018-12-16T01:07:10.240Z,1.10
2018-12-16T01:07:47.083Z,1.00
2018-12-16T01:08:23.972Z,1.27
2018-12-16T01:09:00.742Z,1.40
2018-12-16T01:09:37.716Z,1.27
2018-12-16T01:10:14.852Z,1.57
2018-12-16T01:10:51.841Z,0.90
2018-12-16T01:11:28.719Z,1.10
2018-12-16T01:12:05.540Z,1.10
2018-12-16T01:12:42.570Z,1.23
2018-12-16T01:13:19.468Z,1.20
2018-12-16T01:13:56.331Z,1.33
2018-12-16T01:14:33.132Z,1.40
2018-12-16T01:15:10.268Z,0.93
2018-12-16T01:15:47.219Z,1.07
2018-12-16T01:16:24.053Z,1.53
2018-12-16T01:17:01.043Z,1.50
2018-12-16T01:17:38.121Z,0.90
2018-12-16T01:18:15.046Z,1.10
2018-12-16T01:18:52.457Z,1.03
2018-12-16T01:19:29.284Z,1.00
2018-12-16T01:20:06.406Z,1.00
2018-12-16T01:20:43.992Z,1.00
2018-12-16T01:21:20.910Z,1.10
2018-12-16T01:21:57.882Z,1.13
2018-12-16T01:22:34.642Z,1.20
2018-12-16T01:23:11.465Z,1.40
2018-12-16T01:23:48.321Z,1.23
2018-12-16T01:24:25.228Z,0.87
2018-12-16T01:25:02.112Z,0.83
2018-12-16T01:25:39.013Z,1.27
2018-12-16T01:26:16.791Z,1.30
2018-12-16T01:26:53.683Z,1.10
2018-12-16T01:27:31.560Z,1.50
2018-12-16T01:28:08.369Z,1.20
2018-12-16T01:28:45.101Z,1.17
2018-12-16T01:29:21.971Z,1.17
2018-12-16T01:29:58.829Z,1.60
2018-12-16T01:30:36.236Z,1.23
2018-12-16T01:31:13.034Z,1.00
2018-12-16T01:31:49.974Z,1.00
2018-12-16T01:32:27.011Z,0.93
2018-12-16T01:33:04.795Z,0.70
2018-12-16T01:34:12.782Z,1.37
2018-12-16T01:34:49.650Z,1.17
2018-12-16T01:35:26.628Z,1.23
2018-12-16T01:36:36.925Z,1.60
2018-12-16T01:37:13.748Z,2.23
2018-12-16T01:37:50.632Z,0.90
2018-12-16T01:38:27.459Z,1.00
2018-12-16T01:39:04.832Z,1.30
2018-12-16T01:39:41.824Z,1.30
2018-12-16T01:40:18.953Z,1.23
2018-12-16T01:40:55.979Z,0.97
2018-12-16T01:41:32.868Z,1.23
2018-12-16T01:42:09.629Z,1.33
2018-12-16T01:42:47.196Z,1.20
2018-12-16T01:43:25.798Z,0.90
2018-12-16T01:45:11.993Z,1.40
2018-12-16T01:45:48.846Z,1.13
2018-12-16T01:46:25.676Z,0.93
2018-12-16T01:47:02.490Z,1.07
2018-12-16T01:47:39.317Z,0.93
2018-12-16T01:48:17.123Z,3.13
2018-12-16T01:48:54.075Z,0.90
2018-12-16T01:49:31.022Z,1.47
2018-12-16T01:50:08.091Z,0.97
2018-12-16T01:50:45.167Z,1.20
2018-12-16T01:51:22.106Z,1.37
2018-12-16T01:51:59.027Z,1.40
2018-12-16T01:52:35.911Z,1.30
2018-12-16T01:53:12.862Z,1.10
2018-12-16T01:53:49.641Z,1.17
2018-12-16T01:54:27.335Z,1.00
2018-12-16T01:55:04.251Z,1.10
2018-12-16T01:55:41.187Z,1.20
2018-12-16T01:56:18.144Z,1.03
2018-12-16T01:56:55.545Z,1.10
2018-12-16T01:57:32.662Z,1.60
2018-12-16T01:58:09.472Z,1.30
2018-12-16T01:58:46.670Z,0.97
2018-12-16T01:59:23.497Z,1.33
2018-12-16T02:00:00.452Z,1.20
2018-12-16T02:00:37.296Z,1.50
2018-12-16T02:01:14.252Z,1.20
2018-12-16T02:01:57.326Z,1.70
2018-12-16T02:02:34.252Z,1.43
2018-12-16T02:03:11.078Z,1.53
2018-12-16T02:03:50.217Z,1.40
2018-12-16T02:04:28.526Z,1.40
2018-12-16T02:05:05.375Z,1.30
2018-12-16T02:05:42.229Z,1.30
2018-12-16T02:06:20.355Z,1.40
2018-12-16T02:06:57.254Z,1.20
2018-12-16T02:07:34.031Z,1.40
2018-12-16T02:08:10.987Z,1.23
2018-12-16T02:08:47.838Z,1.20
2018-12-16T02:09:24.704Z,1.60
2018-12-16T02:10:01.625Z,1.30
2018-12-16T02:10:38.543Z,1.43
2018-12-16T02:11:15.764Z,1.60
2018-12-16T02:11:52.720Z,1.17
2018-12-16T02:12:29.655Z,1.37
2018-12-16T02:13:06.858Z,1.43
2018-12-16T02:13:43.751Z,1.33
2018-12-16T02:14:51.026Z,1.30
2018-12-16T02:15:28.024Z,1.30
2018-12-16T02:16:04.960Z,1.60
2018-12-16T02:16:42.318Z,1.23
2018-12-16T02:17:19.229Z,1.20
2018-12-16T02:17:56.107Z,1.23
2018-12-16T02:18:36.094Z,1.33
2018-12-16T02:19:12.952Z,1.60
2018-12-16T02:19:49.773Z,1.50
2018-12-16T02:20:26.674Z,1.80
2018-12-16T02:21:03.721Z,1.43
2018-12-16T02:21:40.683Z,1.33
2018-12-16T02:22:17.537Z,1.17
2018-12-16T02:22:57.020Z,1.20
2018-12-16T02:23:33.528Z,1.30
2018-12-16T02:24:10.512Z,1.30
2018-12-16T02:24:47.378Z,1.23
2018-12-16T02:25:24.251Z,1.00
2018-12-16T02:26:01.193Z,1.40
2018-12-16T02:26:38.049Z,1.20
2018-12-16T02:27:14.908Z,1.10
2018-12-16T02:27:51.879Z,1.67
2018-12-16T02:28:28.793Z,1.23
2018-12-16T02:29:05.728Z,1.13
2018-12-16T02:29:42.590Z,1.47
2018-12-16T02:30:24.868Z,1.30
2018-12-16T02:31:01.896Z,1.20
2018-12-16T02:31:38.696Z,1.83
2018-12-16T02:32:15.610Z,1.63
2018-12-16T02:32:53.939Z,1.77
2018-12-16T02:33:30.724Z,1.60
2018-12-16T02:34:07.680Z,1.70
2018-12-16T02:34:44.436Z,1.53
2018-12-16T02:35:21.270Z,1.17
2018-12-16T02:35:58.180Z,1.13
2018-12-16T02:36:34.973Z,1.70
2018-12-16T02:37:11.935Z,1.40
2018-12-16T02:37:48.744Z,1.10
2018-12-16T02:38:25.638Z,1.60
2018-12-16T02:39:02.541Z,1.00
2018-12-16T02:39:39.372Z,1.20
2018-12-16T02:40:16.257Z,1.80
2018-12-16T02:40:53.189Z,1.60
2018-12-16T02:41:30.211Z,1.70
2018-12-16T02:42:07.274Z,1.63
2018-12-16T02:42:44.274Z,1.90
2018-12-16T02:43:21.189Z,1.60
2018-12-16T02:43:58.259Z,1.83
2018-12-16T02:44:35.151Z,1.50
2018-12-16T02:45:11.993Z,1.60
2018-12-16T02:45:48.932Z,1.43
2018-12-16T02:46:25.816Z,1.70
2018-12-16T02:47:03.771Z,1.30
2018-12-16T02:47:40.726Z,1.40
2018-12-16T02:48:17.529Z,1.20
2018-12-16T02:48:54.342Z,1.47
2018-12-16T02:49:31.389Z,1.50
2018-12-16T02:50:08.496Z,1.33
2018-12-16T02:50:45.309Z,1.40
2018-12-16T02:51:22.174Z,1.50
2018-12-16T02:51:58.949Z,1.80
2018-12-16T02:52:36.132Z,1.80
2018-12-16T02:53:12.983Z,1.40
2018-12-16T02:53:49.884Z,1.60
2018-12-16T02:54:27.027Z,1.50
2018-12-16T02:55:04.071Z,1.90
2018-12-16T02:55:41.006Z,2.00
2018-12-16T02:56:18.017Z,1.47
2018-12-16T02:56:54.871Z,1.60
2018-12-16T02:57:31.640Z,1.77
2018-12-16T02:58:08.579Z,1.07
2018-12-16T02:58:45.432Z,1.53
2018-12-16T02:59:22.337Z,1.60
2018-12-16T02:59:59.229Z,1.40
2018-12-16T03:00:36.158Z,1.40
2018-12-16T03:01:13.119Z,1.10
2018-12-16T03:01:49.992Z,1.20
2018-12-16T03:02:27.005Z,1.33
2018-12-16T03:03:03.854Z,1.40
2018-12-16T03:03:41.648Z,1.20
2018-12-16T03:04:18.479Z,1.80
2018-12-16T03:04:55.361Z,1.33
2018-12-16T03:05:32.169Z,1.23
2018-12-16T03:06:09.076Z,2.63
2018-12-16T03:06:45.957Z,1.37
2018-12-16T03:07:22.947Z,1.70
2018-12-16T03:07:59.743Z,1.50
2018-12-16T03:08:36.724Z,1.10
2018-12-16T03:09:13.537Z,1.77
2018-12-16T03:09:50.597Z,1.70
2018-12-16T03:10:27.467Z,1.30
2018-12-16T03:11:04.321Z,1.73
2018-12-16T03:11:41.215Z,2.10
2018-12-16T03:12:18.032Z,1.40
2018-12-16T03:12:55.092Z,1.60
2018-12-16T03:13:33.369Z,1.83
2018-12-16T03:14:10.315Z,1.40
2018-12-16T03:14:47.379Z,1.37
2018-12-16T03:15:24.310Z,1.50
2018-12-16T03:16:01.236Z,1.80
2018-12-16T03:16:38.126Z,1.80
2018-12-16T03:17:14.956Z,1.70
2018-12-16T03:17:52.029Z,1.30
2018-12-16T03:18:28.767Z,1.73
2018-12-16T03:19:05.637Z,1.60
2018-12-16T03:19:42.722Z,1.53
2018-12-16T03:20:19.621Z,1.63
2018-12-16T03:20:56.625Z,1.50
2018-12-16T03:21:34.217Z,1.80
2018-12-16T03:22:11.172Z,2.20
2018-12-16T03:22:48.021Z,1.70
2018-12-16T03:23:25.073Z,1.43
2018-12-16T03:24:01.977Z,1.90
2018-12-16T03:24:38.898Z,1.80
2018-12-16T03:25:15.703Z,1.37
2018-12-16T03:25:54.778Z,1.70
2018-12-16T03:26:36.165Z,1.70
2018-12-16T03:27:11.991Z,1.90
2018-12-16T03:27:48.914Z,1.50
2018-12-16T03:28:25.933Z,1.90
2018-12-16T03:29:02.982Z,1.57
2018-12-16T03:29:40.337Z,1.60
2018-12-16T03:30:18.350Z,2.00
2018-12-16T03:30:55.198Z,1.57
2018-12-16T03:31:32.162Z,1.63
2018-12-16T03:32:08.981Z,2.33
2018-12-16T03:32:47.516Z,2.00
2018-12-16T03:33:24.388Z,2.23
2018-12-16T03:34:01.219Z,1.83
2018-12-16T03:34:38.656Z,2.30
2018-12-16T03:35:15.368Z,1.90
2018-12-16T03:35:52.824Z,2.20
2018-12-16T03:36:29.659Z,1.90
2018-12-16T03:37:06.564Z,1.87
2018-12-16T03:37:45.292Z,2.10
2018-12-16T03:38:22.177Z,2.43
2018-12-16T03:38:59.136Z,2.50
2018-12-16T03:39:36.108Z,2.40
2018-12-16T03:40:13.076Z,2.50
2018-12-16T03:40:50.246Z,2.97
2018-12-16T03:41:27.297Z,2.00
2018-12-16T03:42:06.166Z,1.90
2018-12-16T03:42:44.407Z,1.80
2018-12-16T03:43:21.171Z,1.47
2018-12-16T03:43:58.866Z,2.20
2018-12-16T03:44:38.530Z,2.67
2018-12-16T03:45:15.614Z,2.13
2018-12-16T03:45:52.998Z,2.80
2018-12-16T03:46:31.362Z,2.73
2018-12-16T03:47:08.708Z,1.97
2018-12-16T03:47:46.052Z,1.80
2018-12-16T03:48:23.950Z,2.40
2018-12-16T03:49:00.991Z,1.90
2018-12-16T03:49:39.384Z,2.43
2018-12-16T03:50:17.135Z,2.50
2018-12-16T03:50:55.702Z,2.17
2018-12-16T03:51:32.684Z,2.60
2018-12-16T03:52:09.647Z,2.40
2018-12-16T03:52:46.569Z,1.93
2018-12-16T03:53:23.412Z,1.60
2018-12-16T04:05:13.094Z,2.50
2018-12-16T04:05:50.077Z,2.27
2018-12-16T04:07:17.317Z,2.43
2018-12-16T04:07:54.925Z,2.43
2018-12-16T04:08:32.488Z,3.10
2018-12-16T04:09:09.694Z,2.30
2018-12-16T04:09:46.971Z,2.70
2018-12-16T04:10:24.628Z,2.43
2018-12-16T04:11:02.067Z,3.07
2018-12-16T04:11:41.078Z,2.33
2018-12-16T04:12:19.363Z,2.33
2018-12-16T04:13:00.033Z,2.37
2018-12-16T04:13:37.637Z,2.20
2018-12-16T04:14:14.924Z,2.73
2018-12-16T04:14:53.996Z,2.30
2018-12-16T04:15:31.719Z,3.00
2018-12-16T04:16:09.057Z,2.70
2018-12-16T04:16:46.796Z,2.50
2018-12-16T04:17:24.263Z,2.63
2018-12-16T04:18:01.606Z,2.37
2018-12-16T04:18:39.213Z,2.90
2018-12-16T04:19:16.822Z,3.20
2018-12-16T04:19:54.642Z,2.40
2018-12-16T04:20:32.610Z,2.60
2018-12-16T04:21:10.746Z,3.13
2018-12-16T04:21:56.642Z,3.30
2018-12-16T04:22:37.602Z,3.00
2018-12-16T04:23:18.738Z,2.50
2018-12-16T04:23:57.705Z,2.63
2018-12-16T04:24:37.370Z,2.60
2018-12-16T04:25:17.723Z,2.20
2018-12-16T04:26:01.525Z,3.30
2018-12-16T04:26:41.516Z,2.80
2018-12-16T04:27:22.359Z,3.27
2018-12-16T04:28:06.026Z,2.77
2018-12-16T04:28:46.676Z,2.83
2018-12-16T04:29:31.831Z,2.33
2018-12-16T04:30:12.769Z,2.67
2018-12-16T04:31:01.104Z,1.80
2018-12-16T04:31:40.178Z,2.10
2018-12-16T04:32:19.398Z,2.90
2018-12-16T04:32:58.057Z,2.23
2018-12-16T04:33:40.428Z,2.40
2018-12-16T04:34:23.189Z,2.67
2018-12-16T04:35:09.454Z,3.30
2018-12-16T04:35:48.617Z,2.17
2018-12-16T04:36:27.186Z,2.37
2018-12-16T04:37:04.884Z,2.50
2018-12-16T04:37:42.316Z,2.53
2018-12-16T04:38:19.550Z,3.03
2018-12-16T04:38:57.049Z,2.33
2018-12-16T04:39:34.820Z,2.70
2018-12-16T04:40:17.955Z,3.00
2018-12-16T04:40:55.705Z,2.53
2018-12-16T04:41:35.621Z,2.73
2018-12-16T04:42:13.165Z,2.90
2018-12-16T04:42:50.617Z,2.17
2018-12-16T04:43:29.258Z,2.30
2018-12-16T04:44:07.322Z,3.03
2018-12-16T04:44:45.308Z,2.23
2018-12-16T04:45:28.214Z,2.80
2018-12-16T04:46:05.555Z,2.90
2018-12-16T04:46:49.773Z,2.10
2018-12-16T04:47:28.943Z,2.77
2018-12-16T04:48:06.715Z,2.63
2018-12-16T04:48:45.313Z,2.70
2018-12-16T04:49:26.932Z,2.63
2018-12-16T04:50:04.300Z,2.53
2018-12-16T04:50:41.684Z,2.97
2018-12-16T04:51:23.590Z,2.60
2018-12-16T04:52:00.860Z,2.50
2018-12-16T04:52:38.299Z,2.50
2018-12-16T04:53:16.908Z,2.73
2018-12-16T04:53:59.372Z,2.63
2018-12-16T04:54:36.641Z,2.60
2018-12-16T04:55:23.194Z,3.03
2018-12-16T04:56:00.781Z,2.40
2018-12-16T04:56:39.250Z,2.43
2018-12-16T04:57:17.167Z,2.90
2018-12-16T04:57:54.562Z,2.00
2018-12-16T04:58:47.669Z,2.20
2018-12-16T04:59:26.186Z,3.10
2018-12-16T05:00:06.327Z,2.60
2018-12-16T05:00:44.133Z,2.97
2018-12-16T05:01:22.681Z,2.80
2018-12-16T05:02:03.104Z,2.30
2018-12-16T05:02:40.360Z,3.30
2018-12-16T05:03:17.360Z,3.50
2018-12-16T05:03:59.410Z,2.10
2018-12-16T05:04:36.964Z,2.67
2018-12-16T05:05:14.630Z,3.00
2018-12-16T05:05:52.671Z,2.87
2018-12-16T05:06:30.529Z,2.40
2018-12-16T05:07:08.932Z,3.00
2018-12-16T05:07:47.069Z,2.90
2018-12-16T05:08:25.392Z,2.57
2018-12-16T05:09:02.723Z,3.30
2018-12-16T05:09:41.524Z,2.97
2018-12-16T05:10:31.009Z,3.40
2018-12-16T05:11:09.872Z,2.27
2018-12-16T05:11:53.347Z,3.30
2018-12-16T05:12:30.689Z,2.47
2018-12-16T05:13:07.841Z,3.20
2018-12-16T05:13:49.760Z,2.70
2018-12-16T05:14:27.942Z,3.03
2018-12-16T05:15:05.425Z,2.93
2018-12-16T05:15:42.700Z,3.67
2018-12-16T05:16:19.980Z,2.80
2018-12-16T05:16:58.365Z,3.30
2018-12-16T05:17:36.581Z,2.30
2018-12-16T05:18:13.767Z,2.97
2018-12-16T05:18:51.266Z,3.57
2018-12-16T05:19:28.487Z,2.50
2018-12-16T05:20:06.393Z,2.53
2018-12-16T05:20:44.665Z,3.10
2018-12-16T05:21:28.705Z,3.07
2018-12-16T05:22:06.202Z,2.97
2018-12-16T05:22:43.937Z,2.70
2018-12-16T05:23:23.648Z,2.60
2018-12-16T05:24:01.788Z,2.60
2018-12-16T05:24:39.545Z,3.50
2018-12-16T05:25:20.708Z,3.03
2018-12-16T05:25:58.322Z,3.30
2018-12-16T05:26:35.740Z,3.43
2018-12-16T05:27:13.348Z,2.73
2018-12-16T05:27:50.750Z,2.70
2018-12-16T05:29:31.331Z,3.47
2018-12-16T05:30:10.502Z,2.97
2018-12-16T05:30:48.264Z,2.93
2018-12-16T05:31:25.698Z,3.40
2018-12-16T05:32:02.917Z,2.90
2018-12-16T05:32:40.178Z,2.30
2018-12-16T05:33:17.597Z,2.80
2018-12-16T05:33:59.193Z,2.50
2018-12-16T05:34:36.514Z,3.20
2018-12-16T05:35:14.029Z,2.40
2018-12-16T05:35:51.630Z,2.70
2018-12-16T05:36:29.145Z,2.20
2018-12-16T05:37:06.575Z,2.70
2018-12-16T05:37:43.523Z,2.80
2018-12-16T05:38:20.921Z,2.73
2018-12-16T05:39:04.813Z,2.20
2018-12-16T05:39:42.410Z,2.30
2018-12-16T05:40:20.281Z,2.10
2018-12-16T05:41:01.307Z,2.40
2018-12-16T05:41:38.777Z,2.40
2018-12-16T05:42:16.605Z,3.00
2018-12-16T05:42:54.675Z,2.03
2018-12-16T05:43:33.909Z,2.50
2018-12-16T05:44:13.488Z,2.90
2018-12-16T05:44:50.664Z,3.20
2018-12-16T05:45:28.249Z,2.60
2018-12-16T05:46:08.102Z,2.43
2018-12-16T05:46:45.906Z,2.30
2018-12-16T05:47:23.326Z,3.10
2018-12-16T05:48:01.304Z,2.77
2018-12-16T05:48:38.684Z,2.67
2018-12-16T05:49:16.094Z,2.00
2018-12-16T05:49:53.668Z,2.57
2018-12-16T05:50:30.754Z,2.80
2018-12-16T05:51:18.509Z,2.10
2018-12-16T05:51:59.222Z,2.17
2018-12-16T05:52:41.358Z,2.77
2018-12-16T05:53:18.996Z,2.50
2018-12-16T05:54:00.786Z,2.87
2018-12-16T05:54:38.443Z,3.17
2018-12-16T05:55:16.278Z,2.30
2018-12-16T05:55:58.497Z,2.70
2018-12-16T05:56:40.222Z,2.10
2018-12-16T05:57:18.128Z,3.30
2018-12-16T05:57:57.789Z,2.63
2018-12-16T05:58:35.068Z,2.33
2018-12-16T05:59:12.674Z,2.40
2018-12-16T05:59:49.784Z,2.40
2018-12-16T06:00:27.717Z,2.33
2018-12-16T06:01:06.062Z,2.10
2018-12-16T06:01:48.191Z,2.43
2018-12-16T06:02:28.933Z,2.53
2018-12-16T06:03:09.831Z,2.60
2018-12-16T06:03:49.408Z,2.80
2018-12-16T06:04:27.994Z,2.63
2018-12-16T06:05:05.634Z,2.80
2018-12-16T06:05:47.951Z,2.30
2018-12-16T06:06:28.477Z,2.70
2018-12-16T06:07:06.624Z,2.10
2018-12-16T06:07:45.684Z,2.57
2018-12-16T06:08:34.624Z,2.67
2018-12-16T06:09:14.308Z,2.63
2018-12-16T06:09:53.081Z,2.27
2018-12-16T06:10:34.203Z,3.30
2018-12-16T06:11:11.592Z,2.33
2018-12-16T06:11:49.099Z,2.50
2018-12-16T06:12:28.468Z,2.60
2018-12-16T06:13:05.729Z,2.53
2018-12-16T06:13:46.433Z,2.70
2018-12-16T06:14:23.944Z,2.20
2018-12-16T06:15:01.432Z,2.30
2018-12-16T06:15:38.721Z,2.80
2018-12-16T06:16:16.287Z,2.87
2018-12-16T06:16:53.531Z,2.57
2018-12-16T06:17:31.135Z,2.90
2018-12-16T06:18:15.310Z,2.90
2018-12-16T06:18:53.545Z,3.10
2018-12-16T06:19:31.078Z,3.30
2018-12-16T06:20:13.103Z,2.60
2018-12-16T06:20:50.493Z,2.57
2018-12-16T06:21:28.442Z,2.53
2018-12-16T06:22:08.723Z,3.00
2018-12-16T06:22:46.160Z,3.00
2018-12-16T06:23:23.401Z,3.27
2018-12-16T06:24:03.937Z,2.63
2018-12-16T06:24:43.337Z,3.00
2018-12-16T06:25:21.860Z,2.70
2018-12-16T06:26:00.250Z,2.70
2018-12-16T06:26:37.825Z,3.27
2018-12-16T06:27:14.886Z,2.80
2018-12-16T06:27:52.640Z,2.30
2018-12-16T06:28:30.341Z,2.70
2018-12-16T06:29:07.917Z,2.70
2018-12-16T06:29:48.235Z,2.20
2018-12-16T06:30:25.912Z,2.70
2018-12-16T06:31:07.885Z,3.70
2018-12-16T06:31:48.282Z,2.67
2018-12-16T06:32:25.846Z,3.13
2018-12-16T06:33:02.817Z,3.30
2018-12-16T06:33:42.801Z,2.57
2018-12-16T06:34:20.188Z,3.10
2018-12-16T06:34:59.008Z,2.90
2018-12-16T06:35:37.284Z,2.80
2018-12-16T06:36:14.224Z,2.50
2018-12-16T06:36:51.017Z,2.70
2018-12-16T06:37:27.913Z,2.23
2018-12-16T06:38:04.643Z,2.60
2018-12-16T06:38:41.393Z,2.10
2018-12-16T06:39:18.588Z,2.00
2018-12-16T06:39:55.501Z,2.37
2018-12-16T06:40:32.288Z,2.43
2018-12-16T06:41:10.120Z,2.73
2018-12-16T06:41:47.275Z,2.60
2018-12-16T06:42:24.129Z,2.67
2018-12-16T06:43:02.498Z,2.50
2018-12-16T06:43:40.237Z,2.33
2018-12-16T06:44:18.298Z,2.70
2018-12-16T06:44:57.902Z,2.10
2018-12-16T06:45:35.336Z,2.40
2018-12-16T06:46:13.142Z,2.27
2018-12-16T06:46:53.717Z,2.33
2018-12-16T06:47:31.366Z,3.33
2018-12-16T06:48:08.818Z,2.50
2018-12-16T06:48:46.028Z,2.77
2018-12-16T06:49:23.560Z,2.40
2018-12-16T06:50:05.036Z,3.10
2018-12-16T06:50:44.231Z,2.67
2018-12-16T06:51:22.214Z,2.90
2018-12-16T06:51:59.477Z,2.73
2018-12-16T06:52:39.731Z,2.40
2018-12-16T06:53:16.823Z,2.63
2018-12-16T06:53:53.882Z,2.50
2018-12-16T06:54:31.575Z,2.97
2018-12-16T06:55:09.045Z,2.60
2018-12-16T06:55:46.401Z,2.40
2018-12-16T06:56:23.421Z,2.50
2018-12-16T06:57:01.958Z,2.63
2018-12-16T06:57:40.064Z,2.83
2018-12-16T06:58:22.700Z,2.60
2018-12-16T06:58:59.763Z,2.83
2018-12-16T06:59:36.661Z,2.43
2018-12-16T07:00:17.276Z,2.17
2018-12-16T07:00:54.442Z,2.50
2018-12-16T07:01:33.205Z,2.37
2018-12-16T07:02:12.307Z,2.70
2018-12-16T07:02:54.402Z,2.70
2018-12-16T07:03:31.758Z,3.20
2018-12-16T07:04:19.942Z,2.30
2018-12-16T07:05:09.177Z,2.50
2018-12-16T07:05:46.585Z,2.77
2018-12-16T07:06:23.825Z,2.73
2018-12-16T07:07:01.237Z,2.70
2018-12-16T07:07:38.763Z,3.30
2018-12-16T07:08:16.398Z,2.73
2018-12-16T07:09:02.143Z,2.50
2018-12-16T07:09:40.302Z,3.20
2018-12-16T07:10:17.670Z,2.53
2018-12-16T07:10:55.096Z,3.40
2018-12-16T07:11:35.312Z,2.60
2018-12-16T07:12:12.769Z,2.23
2018-12-16T07:12:50.393Z,2.10
2018-12-16T07:13:27.787Z,3.10
2018-12-16T07:14:05.505Z,2.47
2018-12-16T07:14:42.840Z,2.50
2018-12-16T07:15:20.123Z,2.60
2018-12-16T07:15:57.759Z,3.13
2018-12-16T07:16:35.195Z,2.50
2018-12-16T07:17:12.481Z,2.80
2018-12-16T07:17:49.959Z,3.00
2018-12-16T07:18:27.459Z,2.80
2018-12-16T07:19:05.354Z,2.63
2018-12-16T07:19:42.930Z,3.17
2018-12-16T07:20:20.073Z,2.50
2018-12-16T07:20:59.176Z,3.13
2018-12-16T07:21:41.860Z,2.90
2018-12-16T07:22:19.233Z,2.60
2018-12-16T07:23:04.841Z,2.60
2018-12-16T07:23:42.064Z,3.27
2018-12-16T07:24:19.118Z,2.70
2018-12-16T07:24:56.540Z,2.77
2018-12-16T07:25:34.208Z,3.33
2018-12-16T07:26:12.131Z,3.27
2018-12-16T07:26:50.405Z,3.37
2018-12-16T07:27:28.067Z,3.17
2018-12-16T07:28:05.822Z,2.67
2018-12-16T07:28:45.505Z,3.33
2018-12-16T07:29:22.881Z,3.30
2018-12-16T07:30:00.348Z,3.00
2018-12-16T07:30:40.478Z,3.20
2018-12-16T07:31:17.881Z,3.13
2018-12-16T07:31:55.187Z,2.80
2018-12-16T07:32:32.638Z,2.73
2018-12-16T07:33:09.794Z,2.90
2018-12-16T07:33:47.249Z,3.00
2018-12-16T07:34:25.347Z,2.67
2018-12-16T07:35:02.933Z,3.13
2018-12-16T07:35:40.539Z,2.73
2018-12-16T07:36:18.058Z,2.80
2018-12-16T07:36:55.475Z,2.90
2018-12-16T07:37:34.281Z,3.03
2018-12-16T07:38:11.792Z,2.37
2018-12-16T07:38:50.523Z,2.43
2018-12-16T07:39:28.005Z,2.80
2018-12-16T07:40:08.164Z,3.07
2018-12-16T07:40:49.130Z,3.03
2018-12-16T07:41:27.012Z,2.40
2018-12-16T07:42:04.640Z,2.73
2018-12-16T07:42:45.683Z,3.10
2018-12-16T07:43:22.855Z,3.20
2018-12-16T07:44:00.285Z,2.90
2018-12-16T07:44:38.378Z,3.10
2018-12-16T07:45:15.754Z,3.33
2018-12-16T07:45:52.772Z,2.97
2018-12-16T07:46:30.169Z,2.83
2018-12-16T07:47:07.638Z,3.10
2018-12-16T07:47:46.389Z,3.10
2018-12-16T07:48:29.676Z,3.20
2018-12-16T07:49:07.158Z,2.90
2018-12-16T07:49:44.602Z,2.80
2018-12-16T07:50:22.075Z,2.57
2018-12-16T07:51:01.545Z,2.67
2018-12-16T07:51:39.462Z,2.50
2018-12-16T07:52:16.654Z,2.40
2018-12-16T07:52:54.869Z,2.83
2018-12-16T07:53:32.147Z,2.47
2018-12-16T07:54:15.933Z,3.73
2018-12-16T07:54:49.101Z,2.50
2018-12-16T07:55:26.299Z,2.23
2018-12-16T07:56:04.553Z,2.57
2018-12-16T07:56:42.864Z,3.30
2018-12-16T07:57:20.424Z,2.63
2018-12-16T07:57:58.009Z,2.50
2018-12-16T07:58:35.319Z,2.87
2018-12-16T07:59:12.953Z,2.50
2018-12-16T07:59:50.773Z,3.10
2018-12-16T08:00:28.450Z,2.40
2018-12-16T08:01:05.734Z,2.97
2018-12-16T08:01:44.285Z,2.20
2018-12-16T08:02:21.899Z,2.57
2018-12-16T08:03:01.649Z,2.50
2018-12-16T08:03:39.696Z,2.70
2018-12-16T08:04:18.101Z,2.13
2018-12-16T08:04:56.696Z,3.17
2018-12-16T08:05:34.314Z,2.73
2018-12-16T08:06:15.369Z,3.40
2018-12-16T08:06:52.800Z,2.70
2018-12-16T08:07:30.131Z,2.73
2018-12-16T08:08:09.016Z,2.70
2018-12-16T08:08:47.483Z,2.87
2018-12-16T08:09:24.909Z,2.73
2018-12-16T08:10:02.398Z,2.50
2018-12-16T08:10:40.053Z,2.97
2018-12-16T08:11:20.934Z,3.00
2018-12-16T08:11:58.273Z,2.60
2018-12-16T08:12:35.586Z,2.03
2018-12-16T08:13:13.060Z,2.40
2018-12-16T08:13:50.445Z,2.80
2018-12-16T08:14:27.892Z,2.73
2018-12-16T08:15:05.543Z,1.97
2018-12-16T08:15:42.836Z,2.40
2018-12-16T08:16:23.637Z,2.10
2018-12-16T08:17:00.955Z,2.10
2018-12-16T08:17:38.433Z,2.20
2018-12-16T08:18:19.911Z,2.27
2018-12-16T08:18:57.777Z,2.70
2018-12-16T08:19:35.691Z,3.00
2018-12-16T08:20:20.803Z,2.83
2018-12-16T08:20:59.895Z,2.27
2018-12-16T08:21:37.461Z,2.60
2018-12-16T08:22:15.703Z,2.37
2018-12-16T08:22:56.173Z,2.43
2018-12-16T08:23:33.258Z,2.30
2018-12-16T08:24:10.992Z,3.00
2018-12-16T08:24:51.521Z,2.60
2018-12-16T08:25:29.300Z,2.77
2018-12-16T08:26:07.645Z,2.40
2018-12-16T08:26:44.761Z,1.63
2018-12-16T08:27:22.271Z,2.30
2018-12-16T08:28:00.269Z,2.40
2018-12-16T08:28:42.705Z,1.80
2018-12-16T08:29:19.967Z,2.53
2018-12-16T08:29:58.271Z,2.40
2018-12-16T08:30:36.992Z,2.03
2018-12-16T08:31:15.428Z,2.70
2018-12-16T08:31:53.023Z,2.53
2018-12-16T08:32:32.089Z,1.70
2018-12-16T08:33:09.236Z,2.43
2018-12-16T08:33:46.714Z,2.73
2018-12-16T08:34:24.894Z,2.30
2018-12-16T08:35:02.475Z,2.63
2018-12-16T08:35:39.495Z,2.70
2018-12-16T08:36:17.075Z,2.10
2018-12-16T08:36:54.304Z,2.40
2018-12-16T08:37:38.870Z,2.87
2018-12-16T08:38:15.708Z,2.33
2018-12-16T08:38:53.273Z,2.70
2018-12-16T08:39:30.701Z,2.37
2018-12-16T08:40:14.785Z,1.90
2018-12-16T08:40:58.515Z,2.60
2018-12-16T08:41:35.609Z,2.07
2018-12-16T08:42:12.637Z,2.60
2018-12-16T08:42:51.128Z,2.40